Aviation Digital Data Service (ADDS)

Output produced by METARs form (1146 UTC 01 August 2015)
found at http://www.aviationweather.gov/adds/metars/
 
KCXY 011056Z 27006KT 10SM BKN100 BKN120 21/16 A2985 RMK AO2 SLP107 T02110156
KCXY 010956Z AUTO 24004KT 10SM FEW110 19/15 A2984 RMK AO2 SLP102 T01940150
KCXY 010856Z AUTO 23003KT 10SM FEW110 20/15 A2983 RMK AO2 SLP098 T02000150 56008
KCXY 010756Z AUTO 26005KT 10SM CLR 21/15 A2983 RMK AO2 SLP099 T02060150
KCXY 010656Z AUTO 25006KT 10SM CLR 22/16 A2984 RMK AO2 SLP104 T02170156
KCXY 010556Z AUTO 24004KT 10SM CLR 21/16 A2985 RMK AO2 SLP107 T02060161 10283 20206 58004
KCXY 010456Z AUTO 25003KT 10SM CLR 22/17 A2986 RMK AO2 SLP109 T02170167 403170178
KCXY 010356Z AUTO 23004KT 10SM CLR 22/16 A2986 RMK AO2 SLP111 T02220161
KCXY 010256Z AUTO 26004KT 10SM CLR 24/15 A2986 RMK AO2 SLP111 T02390150 53008
KCXY 010156Z AUTO 26005KT 10SM CLR 25/15 A2986 RMK AO2 SLP109 T02500150
KCXY 010056Z AUTO 25005KT 10SM CLR 26/15 A2984 RMK AO2 SLP103 T02610150
KCXY 312356Z 24003KT 10SM CLR 28/16 A2984 RMK AO2 SLP102 T02830156 10317 20278 55006
KCXY 312256Z 24006KT 10SM CLR 30/14 A2984 RMK AO2 SLP101 T03000139
KCXY 312156Z 22011KT 10SM FEW070 31/14 A2984 RMK AO2 SLP104 T03060139
KCXY 312056Z 27006KT 10SM FEW070 31/13 A2986 RMK AO2 SLP109 T03110128 58016
KCXY 311956Z 30007KT 270V330 10SM FEW070 32/13 A2987 RMK AO2 SLP114 T03170128
KCXY 311856Z 00000KT 10SM FEW060 31/12 A2989 RMK AO2 SLP120 T03060117
KCXY 311756Z 35008KT 310V030 10SM FEW060 31/13 A2991 RMK AO2 SLP125 T03060128 10311 20217 58011
KCXY 311656Z 35008KT 10SM SCT060 31/12 A2991 RMK AO2 SLP128 T03060117
KCXY 311556Z VRB06KT 10SM CLR 30/14 A2993 RMK AO2 SLP133 T03000139
KCXY 311456Z 35005KT 10SM CLR 28/14 A2994 RMK AO2 SLP136 T02830144 58002
KCXY 311356Z 27008KT 10SM CLR 27/15 A2994 RMK AO2 SLP137 T02670150
KCXY 311256Z 28007KT 10SM CLR 24/15 A2994 RMK AO2 SLP138 T02390150
KCXY 311156Z 27006KT 10SM CLR 22/15 A2994 RMK AO2 SLP138 70001 T02170150 10217 20178 53012
KCXY 311056Z 00000KT 10SM BKN075 21/14 A2993 RMK AO2 SLP132 T02060144
KCXY 310956Z AUTO 24004KT 10SM CLR 18/14 A2992 RMK AO2 SLP130 T01780144
KCXY 310856Z AUTO 26004KT 10SM CLR 20/14 A2991 RMK AO2 SLP126 T02000144 57002
KCXY 310756Z AUTO 00000KT 10SM CLR 19/15 A2991 RMK AO2 SLP126 T01940150
KCXY 310656Z AUTO 23005KT 10SM CLR 21/16 A2991 RMK AO2 SLP128 T02060156
KCXY 310556Z AUTO 00000KT 10SM CLR 22/16 A2991 RMK AO2 SLP128 T02170156 10283 20211 50004
KCXY 310456Z AUTO 29004KT 10SM CLR 23/16 A2992 RMK AO2 SLP130 T02330156 403170217
KCXY 310356Z AUTO 25006KT 10SM CLR 23/17 A2991 RMK AO2 SLP128 T02280167
KCXY 310256Z AUTO 25008KT 10SM SCT075 24/17 A2990 RMK AO2 SLP124 T02390167 51015
KCXY 310156Z AUTO 26006KT 10SM CLR 24/17 A2989 RMK AO2 SLP120 T02390172
KCXY 310056Z AUTO 25006KT 10SM CLR 26/17 A2987 RMK AO2 SLP113 T02560172
KCXY 302356Z 27005KT 10SM CLR 28/15 A2986 RMK AO2 SLP109 T02830150 10317 20278 53009